Grattan, Minnesota
Current Conditions -  °F | °C
As of 5:33 AM on Friday 31 Oct 2014 (Local Time) from KFOZ Reporting Station
Clear Clear  
Wind Chill: 25°   Ceiling: Unl
Heat Index: 25°   Visibility: 10mi
Dew Point: 16°   Wind: 3mph
Humidity: 69%   Direction: 360°N
Pressure: 30.53"   Gusts: NA
Location:  47.8312°N, 94.1459°W
Report Text: KFOZ 311033Z AUTO 36003KT 10SM CLR M04/M09 A3053 RMK AO2
Loading
Personal Weather Stations






























Interactive Weather Map
Tropical Storm Tracking
New forecast layout! Learn more

10-Day Weather Forecast

Advertisements
Track Severe Weather on mobile